YALG weather

Adels Grove Airport
Queensland, Australia

Public forecast

Using degrees Celsius for public forecast. Weather courtesy of forecast.io.

METAR (pilot weather report)

Closest report is Mount Isa Airport, 129.7 nm (240.2 km) SSE. Retrieved 2019/04/24 00:30 UTC (2 minutes ago):

YBMA 240030Z AUTO 13011KT 9999 // NCD 27/15 Q1019 RF00.0/000.0

TAF (pilot weather forecast)

Forecast is more than 12 hours old.

Closest forecast is Mount Isa Airport, 129.7 nm (240.2 km) SSE. Retrieved 2019/04/23 00:03 UTC (1 day ago):

TAF TAF YBMA 232244Z 2400/2412 14012KT CAVOK